createdAt,value
2019-05-03T00:02:39.163Z,99.90
2019-05-03T00:05:26.324Z,99.90
2019-05-03T00:07:57.552Z,99.90
2019-05-03T00:10:24.793Z,99.90
2019-05-03T00:12:52.747Z,99.90
2019-05-03T00:15:33.756Z,99.90
2019-05-03T00:18:02.388Z,99.90
2019-05-03T00:20:29.814Z,99.90
2019-05-03T00:22:57.062Z,99.90
2019-05-03T00:25:24.295Z,99.90
2019-05-03T00:27:52.772Z,99.90
2019-05-03T00:30:20.170Z,99.90
2019-05-03T00:32:47.471Z,99.90
2019-05-03T00:35:19.767Z,99.90
2019-05-03T00:37:48.803Z,99.90
2019-05-03T00:40:27.619Z,99.90
2019-05-03T00:42:54.884Z,99.90
2019-05-03T00:45:22.166Z,99.90
2019-05-03T00:47:49.475Z,99.90
2019-05-03T00:50:16.741Z,99.90
2019-05-03T00:52:43.955Z,99.90
2019-05-03T00:55:17.053Z,99.90
2019-05-03T00:57:41.564Z,99.90
2019-05-03T01:00:08.988Z,99.90
2019-05-03T01:02:36.238Z,99.90
2019-05-03T01:05:05.123Z,99.90
2019-05-03T01:07:32.387Z,99.90
2019-05-03T01:10:00.024Z,99.90
2019-05-03T01:12:27.351Z,99.90
2019-05-03T01:14:56.271Z,99.90
2019-05-03T01:17:23.539Z,99.90
2019-05-03T01:19:52.188Z,99.90
2019-05-03T01:22:19.692Z,99.90
2019-05-03T01:24:46.934Z,99.90
2019-05-03T01:27:14.145Z,99.90
2019-05-03T01:29:42.479Z,99.90
2019-05-03T01:32:11.487Z,99.90
2019-05-03T01:34:38.917Z,99.90
2019-05-03T01:37:06.173Z,99.90
2019-05-03T01:39:33.423Z,99.90
2019-05-03T01:42:02.534Z,99.90
2019-05-03T01:44:29.876Z,99.90
2019-05-03T01:46:59.033Z,99.90
2019-05-03T01:49:42.688Z,99.90
2019-05-03T01:52:21.909Z,99.90
2019-05-03T01:54:49.363Z,99.90
2019-05-03T01:57:16.622Z,99.90
2019-05-03T01:59:43.842Z,99.90
2019-05-03T02:02:33.916Z,99.90
2019-05-03T02:05:20.009Z,99.90
2019-05-03T02:07:48.713Z,99.90
2019-05-03T02:10:16.283Z,99.90
2019-05-03T02:12:43.528Z,99.90
2019-05-03T02:15:11.894Z,99.90
2019-05-03T02:17:39.343Z,99.90
2019-05-03T02:20:07.076Z,99.90
2019-05-03T02:22:34.319Z,99.90
2019-05-03T02:25:01.853Z,99.90
2019-05-03T02:27:29.305Z,99.90
2019-05-03T02:29:56.528Z,99.90
2019-05-03T02:32:23.811Z,99.90
2019-05-03T02:34:53.420Z,99.90
2019-05-03T02:37:22.385Z,99.90
2019-05-03T02:39:54.361Z,99.90
2019-05-03T02:42:21.616Z,99.90
2019-05-03T02:44:48.859Z,99.90
2019-05-03T02:47:35.686Z,99.90
2019-05-03T02:50:08.097Z,99.90
2019-05-03T02:52:37.268Z,99.90
2019-05-03T02:55:07.627Z,99.90
2019-05-03T02:57:35.245Z,99.90
2019-05-03T03:00:05.058Z,99.90
2019-05-03T03:02:32.864Z,99.90
2019-05-03T03:05:00.085Z,99.90
2019-05-03T03:07:28.116Z,99.90
2019-05-03T03:09:58.408Z,99.90
2019-05-03T03:12:27.342Z,99.90
2019-05-03T03:14:55.744Z,99.90
2019-05-03T03:17:26.189Z,99.90
2019-05-03T03:19:56.360Z,99.90
2019-05-03T03:22:26.073Z,99.90
2019-05-03T03:24:57.090Z,99.90
2019-05-03T03:27:26.222Z,99.90
2019-05-03T03:30:09.091Z,99.90
2019-05-03T03:32:38.900Z,99.90
2019-05-03T03:35:13.393Z,99.90
2019-05-03T03:37:41.789Z,99.90
2019-05-03T03:40:09.493Z,99.90
2019-05-03T03:42:39.714Z,99.90
2019-05-03T03:45:07.889Z,99.90
2019-05-03T03:47:38.024Z,99.90
2019-05-03T03:50:06.124Z,99.90
2019-05-03T03:52:36.040Z,99.90
2019-05-03T03:55:06.308Z,99.90
2019-05-03T03:57:35.903Z,99.90
2019-05-03T04:00:05.738Z,99.90
2019-05-03T04:02:35.419Z,99.90
2019-05-03T04:05:05.395Z,99.90
2019-05-03T04:07:32.207Z,99.90
2019-05-03T04:09:59.523Z,99.90
2019-05-03T04:12:26.961Z,99.90
2019-05-03T04:15:05.693Z,99.90
2019-05-03T04:17:58.736Z,99.90
2019-05-03T04:20:30.254Z,99.90
2019-05-03T04:22:58.204Z,99.90
2019-05-03T04:25:26.113Z,99.90
2019-05-03T04:27:56.063Z,99.90
2019-05-03T04:30:25.422Z,99.90
2019-05-03T04:32:52.195Z,99.90
2019-05-03T04:35:19.530Z,99.90
2019-05-03T04:37:46.840Z,99.90
2019-05-03T04:40:15.612Z,99.90
2019-05-03T04:42:46.129Z,99.90
2019-05-03T04:45:12.628Z,99.90
2019-05-03T04:47:39.975Z,99.90
2019-05-03T04:50:07.309Z,99.90
2019-05-03T04:52:36.192Z,99.90
2019-05-03T04:55:06.359Z,99.90
2019-05-03T04:57:40.733Z,99.90
2019-05-03T05:00:02.175Z,99.90
2019-05-03T05:02:29.424Z,99.90
2019-05-03T05:04:56.648Z,99.90
2019-05-03T05:07:26.154Z,99.90
2019-05-03T05:09:55.864Z,99.90
2019-05-03T05:12:24.974Z,99.90
2019-05-03T05:14:51.532Z,99.90
2019-05-03T05:17:28.886Z,99.90
2019-05-03T05:20:11.930Z,99.90
2019-05-03T05:22:39.347Z,99.90
2019-05-03T05:25:10.511Z,99.90
2019-05-03T05:27:58.758Z,99.90
2019-05-03T05:30:26.103Z,99.90
2019-05-03T05:32:55.059Z,99.90
2019-05-03T05:35:22.536Z,99.90
2019-05-03T05:37:49.801Z,99.90
2019-05-03T05:40:20.427Z,99.90
2019-05-03T05:42:47.779Z,99.90
2019-05-03T05:45:15.397Z,99.90
2019-05-03T05:48:02.393Z,99.90
2019-05-03T05:50:35.439Z,99.90
2019-05-03T05:53:04.962Z,99.90
2019-05-03T05:56:05.034Z,99.90
2019-05-03T05:58:37.067Z,99.90
2019-05-03T06:01:14.483Z,99.90
2019-05-03T06:03:41.712Z,99.90
2019-05-03T06:06:12.254Z,99.90
2019-05-03T06:08:50.787Z,99.90
2019-05-03T06:11:36.260Z,99.90
2019-05-03T06:14:08.987Z,99.90
2019-05-03T06:16:45.300Z,99.90
2019-05-03T06:19:35.119Z,99.90
2019-05-03T06:22:12.779Z,99.90
2019-05-03T06:24:59.451Z,99.90
2019-05-03T06:27:36.407Z,99.90
2019-05-03T06:30:36.708Z,99.90
2019-05-03T06:33:05.363Z,99.90
2019-05-03T06:35:34.481Z,99.90
2019-05-03T06:38:02.132Z,99.90
2019-05-03T06:40:29.431Z,99.90
2019-05-03T06:43:08.585Z,99.90
2019-05-03T06:45:25.883Z,99.90
2019-05-03T06:47:54.975Z,99.90
2019-05-03T06:50:27.546Z,99.90
2019-05-03T06:52:51.503Z,99.90
2019-05-03T06:55:18.800Z,99.90
2019-05-03T06:57:49.628Z,99.90
2019-05-03T07:00:37.620Z,99.90
2019-05-03T07:03:25.158Z,99.90
2019-05-03T07:06:10.468Z,99.90
2019-05-03T07:09:05.941Z,99.90
2019-05-03T07:11:34.871Z,99.90
2019-05-03T07:14:02.351Z,99.90
2019-05-03T07:16:29.595Z,99.90
2019-05-03T07:18:58.573Z,99.90
2019-05-03T07:21:26.003Z,99.90
2019-05-03T07:23:55.039Z,99.90
2019-05-03T07:26:22.415Z,99.90
2019-05-03T07:28:50.221Z,99.90
2019-05-03T07:31:17.745Z,99.90
2019-05-03T07:33:47.483Z,99.90
2019-05-03T07:36:15.411Z,99.90
2019-05-03T07:38:42.863Z,99.90
2019-05-03T07:41:10.183Z,99.90
2019-05-03T07:43:37.426Z,99.90
2019-05-03T07:46:05.580Z,99.90
2019-05-03T07:48:34.854Z,99.90
2019-05-03T07:51:02.320Z,99.90
2019-05-03T07:53:29.579Z,99.90
2019-05-03T07:56:07.313Z,99.90
2019-05-03T07:58:35.246Z,99.90
2019-05-03T08:01:08.977Z,99.90
2019-05-03T08:03:34.836Z,99.90
2019-05-03T08:06:04.567Z,99.90
2019-05-03T08:08:31.685Z,99.90
2019-05-03T08:10:58.910Z,99.90
2019-05-03T08:13:26.155Z,99.90
2019-05-03T08:15:55.537Z,99.90
2019-05-03T08:18:22.596Z,99.90
2019-05-03T08:20:49.856Z,99.90
2019-05-03T08:23:26.290Z,99.90
2019-05-03T08:25:46.265Z,99.90
2019-05-03T08:28:14.635Z,99.90
2019-05-03T08:30:54.345Z,99.90
2019-05-03T08:33:44.815Z,99.90
2019-05-03T08:36:12.192Z,99.90
2019-05-03T08:38:39.530Z,99.90
2019-05-03T08:41:08.983Z,99.90
2019-05-03T08:43:36.232Z,99.90
2019-05-03T08:46:04.558Z,99.90
2019-05-03T08:48:32.033Z,99.90
2019-05-03T08:50:59.264Z,99.90
2019-05-03T08:53:26.515Z,99.90
2019-05-03T08:55:55.289Z,99.90
2019-05-03T08:58:22.720Z,99.90
2019-05-03T09:00:49.961Z,99.90
2019-05-03T09:03:17.436Z,99.90
2019-05-03T09:05:45.831Z,99.90
2019-05-03T09:08:15.732Z,99.90
2019-05-03T09:10:54.430Z,99.90
2019-05-03T09:13:21.915Z,99.90
2019-05-03T09:15:49.718Z,99.90
2019-05-03T09:18:17.634Z,99.90
2019-05-03T09:20:45.130Z,99.90
2019-05-03T09:23:12.355Z,99.90
2019-05-03T09:25:39.620Z,99.90
2019-05-03T09:28:06.880Z,99.90
2019-05-03T09:30:35.758Z,99.90
2019-05-03T09:33:06.009Z,99.90
2019-05-03T09:35:35.291Z,99.90
2019-05-03T09:38:01.731Z,99.90
2019-05-03T09:40:28.971Z,99.90
2019-05-03T09:42:56.219Z,99.90
2019-05-03T09:45:24.611Z,99.90
2019-05-03T09:47:52.032Z,99.90
2019-05-03T09:50:19.283Z,99.90
2019-05-03T09:52:47.230Z,99.90
2019-05-03T09:55:20.471Z,99.90
2019-05-03T09:57:47.755Z,99.90
2019-05-03T10:00:16.699Z,99.90
2019-05-03T10:02:44.969Z,99.90
2019-05-03T10:05:12.764Z,99.90
2019-05-03T10:07:39.996Z,99.90
2019-05-03T10:10:07.414Z,99.90
2019-05-03T10:12:35.033Z,99.90
2019-05-03T10:15:02.487Z,99.90
2019-05-03T10:17:47.307Z,99.80
2019-05-03T10:20:15.365Z,99.30
2019-05-03T10:22:42.840Z,99.40
2019-05-03T10:25:10.155Z,99.40
2019-05-03T10:27:45.748Z,99.50
2019-05-03T10:30:25.352Z,99.60
2019-05-03T10:32:58.480Z,99.90
2019-05-03T10:35:25.738Z,99.90
2019-05-03T10:37:54.902Z,99.90
2019-05-03T10:40:25.405Z,99.90
2019-05-03T10:42:52.676Z,99.90
2019-05-03T10:45:20.029Z,99.90
2019-05-03T10:47:47.311Z,99.90
2019-05-03T10:50:15.617Z,99.90
2019-05-03T10:52:48.225Z,99.70
2019-05-03T10:55:15.889Z,99.50
2019-05-03T10:57:46.331Z,99.90
2019-05-03T11:00:41.807Z,99.90
2019-05-03T11:02:51.692Z,99.90
2019-05-03T11:05:19.001Z,99.90
2019-05-03T11:07:46.323Z,99.90
2019-05-03T11:10:33.150Z,99.90
2019-05-03T11:13:00.391Z,99.90
2019-05-03T11:15:27.640Z,99.90
2019-05-03T11:17:55.002Z,99.90
2019-05-03T11:20:35.526Z,99.90
2019-05-03T11:23:05.923Z,99.90
2019-05-03T11:25:34.521Z,99.90
2019-05-03T11:28:05.491Z,99.90
2019-05-03T11:30:35.645Z,99.90
2019-05-03T11:33:16.511Z,99.90
2019-05-03T11:35:48.358Z,99.90
2019-05-03T11:38:25.415Z,99.90
2019-05-03T11:41:29.457Z,99.90
2019-05-03T11:43:48.151Z,99.90
2019-05-03T11:46:15.412Z,99.90
2019-05-03T11:48:42.695Z,99.90
2019-05-03T11:51:09.948Z,99.90
2019-05-03T11:53:37.242Z,99.90
2019-05-03T11:56:05.555Z,99.90
2019-05-03T11:58:35.211Z,99.90
2019-05-03T12:01:20.324Z,99.90
2019-05-03T12:03:49.813Z,99.90
2019-05-03T12:06:17.125Z,99.90
2019-05-03T12:08:44.790Z,99.90
2019-05-03T12:11:12.378Z,99.90
2019-05-03T12:13:40.027Z,99.90
2019-05-03T12:16:17.032Z,99.90
2019-05-03T12:18:50.164Z,99.90
2019-05-03T12:21:10.188Z,99.90
2019-05-03T12:23:38.513Z,99.90
2019-05-03T12:26:09.826Z,99.90
2019-05-03T12:28:35.479Z,99.90
2019-05-03T12:31:04.812Z,99.60
2019-05-03T12:33:32.203Z,99.10
2019-05-03T12:35:59.519Z,96.40
2019-05-03T12:38:27.836Z,96.30
2019-05-03T12:40:55.072Z,96.10
2019-05-03T12:43:22.323Z,95.90
2019-05-03T12:45:49.695Z,94.70
2019-05-03T12:48:16.927Z,95.90
2019-05-03T12:50:46.217Z,95.50
2019-05-03T12:53:15.098Z,95.70
2019-05-03T12:55:42.459Z,95.50
2019-05-03T12:58:09.765Z,95.50
2019-05-03T13:00:55.709Z,95.60
2019-05-03T13:03:29.580Z,96.10
2019-05-03T13:05:56.819Z,96.00
2019-05-03T13:08:41.744Z,95.50
2019-05-03T13:11:08.995Z,95.30
2019-05-03T13:13:36.391Z,94.50
2019-05-03T13:16:04.598Z,94.10
2019-05-03T13:18:32.155Z,92.50
2019-05-03T13:20:59.494Z,92.70
2019-05-03T13:23:26.769Z,93.00
2019-05-03T13:25:54.019Z,94.10
2019-05-03T13:28:21.365Z,93.70
2019-05-03T13:30:48.748Z,93.00
2019-05-03T13:33:16.000Z,93.00
2019-05-03T13:35:44.566Z,92.80
2019-05-03T13:38:12.256Z,92.30
2019-05-03T13:40:39.488Z,91.50
2019-05-03T13:43:06.891Z,89.80
2019-05-03T13:45:35.539Z,90.00
2019-05-03T13:48:04.996Z,90.10
2019-05-03T13:50:32.392Z,90.80
2019-05-03T13:52:59.623Z,90.80
2019-05-03T13:55:26.850Z,90.80
2019-05-03T13:57:55.000Z,90.70
2019-05-03T14:00:24.521Z,90.60
2019-05-03T14:02:51.516Z,89.30
2019-05-03T14:05:18.847Z,89.50
2019-05-03T14:07:46.235Z,89.30
2019-05-03T14:10:13.650Z,89.50
2019-05-03T14:12:40.965Z,89.40
2019-05-03T14:15:08.800Z,85.70
2019-05-03T14:17:36.039Z,86.80
2019-05-03T14:20:23.077Z,87.10
2019-05-03T14:22:51.226Z,87.40
2019-05-03T14:25:18.492Z,87.90
2019-05-03T14:27:45.781Z,88.50
2019-05-03T14:30:14.576Z,88.40
2019-05-03T14:32:41.997Z,88.80
2019-05-03T14:35:09.356Z,90.10
2019-05-03T14:37:37.928Z,90.20
2019-05-03T14:40:05.887Z,90.40
2019-05-03T14:42:33.206Z,91.00
2019-05-03T14:45:00.499Z,90.90
2019-05-03T14:47:27.931Z,91.00
2019-05-03T14:49:58.630Z,91.10
2019-05-03T14:52:28.428Z,91.20
2019-05-03T14:54:59.579Z,91.40
2019-05-03T14:57:34.988Z,91.50
2019-05-03T15:00:22.213Z,91.70
2019-05-03T15:03:10.199Z,92.70
2019-05-03T15:05:37.504Z,92.40
2019-05-03T15:08:05.562Z,92.40
2019-05-03T15:10:35.080Z,92.60
2019-05-03T15:13:02.333Z,92.70
2019-05-03T15:15:29.677Z,92.90
2019-05-03T15:17:56.947Z,93.20
2019-05-03T15:20:25.544Z,93.30
2019-05-03T15:22:54.806Z,93.10
2019-05-03T15:25:22.248Z,93.30
2019-05-03T15:27:49.555Z,93.90
2019-05-03T15:30:16.840Z,94.00
2019-05-03T15:32:56.767Z,94.00
2019-05-03T15:35:15.186Z,94.00
2019-05-03T15:37:45.106Z,93.70
2019-05-03T15:40:12.436Z,94.80
2019-05-03T15:42:45.094Z,94.60
2019-05-03T15:45:36.219Z,94.60
2019-05-03T15:48:10.187Z,94.70
2019-05-03T15:50:37.449Z,94.80
2019-05-03T15:53:05.182Z,94.40
2019-05-03T15:55:32.585Z,94.30
2019-05-03T15:58:00.783Z,94.30
2019-05-03T16:00:28.156Z,94.40
2019-05-03T16:02:58.467Z,94.70
2019-05-03T16:05:25.718Z,94.90
2019-05-03T16:07:55.328Z,94.90
2019-05-03T16:10:24.900Z,95.00
2019-05-03T16:12:54.530Z,95.00
2019-05-03T16:15:22.072Z,94.90
2019-05-03T16:17:49.392Z,95.10
2019-05-03T16:20:16.871Z,94.90
2019-05-03T16:22:45.026Z,94.90
2019-05-03T16:25:14.298Z,95.00
2019-05-03T16:28:04.802Z,95.10
2019-05-03T16:31:05.139Z,95.10
2019-05-03T16:33:34.761Z,95.20
2019-05-03T16:36:01.797Z,95.30
2019-05-03T16:38:29.103Z,95.40
2019-05-03T16:40:56.342Z,95.50
2019-05-03T16:43:25.467Z,95.90
2019-05-03T16:45:55.009Z,95.40
2019-05-03T16:48:21.912Z,95.50
2019-05-03T16:50:49.145Z,95.60
2019-05-03T16:53:16.407Z,95.50
2019-05-03T16:55:44.363Z,95.60
2019-05-03T16:58:11.798Z,95.60
2019-05-03T17:00:39.064Z,95.50
2019-05-03T17:03:06.430Z,95.60
2019-05-03T17:05:47.476Z,95.70
2019-05-03T17:08:54.280Z,95.90
2019-05-03T17:11:24.171Z,95.90
2019-05-03T17:13:51.818Z,95.80
2019-05-03T17:16:19.529Z,95.90
2019-05-03T17:18:47.262Z,96.00
2019-05-03T17:21:16.338Z,96.10
2019-05-03T17:23:45.887Z,96.40
2019-05-03T17:26:15.300Z,96.60
2019-05-03T17:28:42.379Z,96.60
2019-05-03T17:31:09.608Z,96.90
2019-05-03T17:33:36.836Z,97.00
2019-05-03T17:36:05.064Z,97.40
2019-05-03T17:38:32.707Z,97.00
2019-05-03T17:41:12.547Z,97.10
2019-05-03T17:43:45.167Z,97.40
2019-05-03T17:46:12.723Z,97.50
2019-05-03T17:48:39.991Z,97.40
2019-05-03T17:51:07.231Z,97.40
2019-05-03T17:53:54.834Z,97.50
2019-05-03T17:56:40.862Z,97.50
2019-05-03T17:59:24.333Z,97.80
2019-05-03T18:02:23.255Z,97.70
2019-05-03T18:05:14.650Z,97.70
2019-05-03T18:08:05.387Z,97.80
2019-05-03T18:10:33.480Z,98.20
2019-05-03T18:13:00.727Z,98.10
2019-05-03T18:15:27.959Z,98.10
2019-05-03T18:17:55.207Z,98.10
2019-05-03T18:20:22.475Z,98.10
2019-05-03T18:22:49.712Z,98.20
2019-05-03T18:25:16.972Z,98.30
2019-05-03T18:27:44.583Z,98.50
2019-05-03T18:30:12.171Z,98.50
2019-05-03T18:32:39.392Z,98.50
2019-05-03T18:35:06.638Z,98.60
2019-05-03T18:37:34.989Z,98.70
2019-05-03T18:40:04.686Z,98.70
2019-05-03T18:42:38.440Z,99.00
2019-05-03T18:45:15.113Z,99.00
2019-05-03T18:47:42.431Z,99.10
2019-05-03T18:50:09.732Z,99.20
2019-05-03T18:52:37.774Z,99.20
2019-05-03T18:55:06.006Z,99.30
2019-05-03T18:57:33.335Z,99.10
2019-05-03T19:00:00.824Z,99.40
2019-05-03T19:02:28.717Z,99.10
2019-05-03T19:04:56.081Z,99.20
2019-05-03T19:07:41.287Z,99.30
2019-05-03T19:10:28.448Z,99.40
2019-05-03T19:13:04.504Z,99.60
2019-05-03T19:15:34.456Z,99.90
2019-05-03T19:18:15.414Z,99.90
2019-05-03T19:20:42.824Z,99.90
2019-05-03T19:23:11.247Z,99.90
2019-05-03T19:25:46.909Z,99.90
2019-05-03T19:28:08.241Z,99.90
2019-05-03T19:30:38.886Z,99.90
2019-05-03T19:33:06.493Z,99.90
2019-05-03T19:35:33.780Z,99.90
2019-05-03T19:38:01.480Z,99.90
2019-05-03T19:40:28.729Z,99.90
2019-05-03T19:42:56.011Z,99.90
2019-05-03T19:45:24.870Z,99.90
2019-05-03T19:47:55.091Z,99.90
2019-05-03T19:50:24.852Z,99.90
2019-05-03T19:53:05.129Z,99.90
2019-05-03T19:55:33.093Z,99.90
2019-05-03T19:58:02.724Z,99.90
2019-05-03T20:00:41.790Z,99.90
2019-05-03T20:03:15.461Z,99.90
2019-05-03T20:05:52.460Z,99.90
2019-05-03T20:08:24.648Z,99.90
2019-05-03T20:11:11.759Z,99.90
2019-05-03T20:13:39.329Z,99.90
2019-05-03T20:16:07.597Z,99.90
2019-05-03T20:18:35.521Z,99.90
2019-05-03T20:21:04.380Z,99.90
2019-05-03T20:23:32.481Z,99.90
2019-05-03T20:25:59.818Z,99.90
2019-05-03T20:28:27.256Z,99.90
2019-05-03T20:30:54.587Z,99.90
2019-05-03T20:33:22.103Z,99.90
2019-05-03T20:35:49.338Z,99.90
2019-05-03T20:38:17.303Z,99.90
2019-05-03T20:40:45.063Z,99.90
2019-05-03T20:43:35.165Z,99.90
2019-05-03T20:46:15.199Z,99.90
2019-05-03T20:48:45.180Z,99.90
2019-05-03T20:51:14.793Z,99.90
2019-05-03T20:53:44.943Z,99.90
2019-05-03T20:56:12.365Z,99.90
2019-05-03T20:58:39.580Z,99.90
2019-05-03T21:01:06.841Z,99.90
2019-05-03T21:03:39.592Z,99.90
2019-05-03T21:06:07.541Z,99.90
2019-05-03T21:08:49.358Z,99.90
2019-05-03T21:11:05.608Z,99.90
2019-05-03T21:13:42.107Z,99.90
2019-05-03T21:16:16.070Z,99.90
2019-05-03T21:18:55.138Z,99.90
2019-05-03T21:21:29.674Z,99.90
2019-05-03T21:24:00.672Z,99.90
2019-05-03T21:26:28.380Z,99.90
2019-05-03T21:28:55.788Z,99.90
2019-05-03T21:31:24.649Z,99.90
2019-05-03T21:33:52.898Z,99.90
2019-05-03T21:36:21.771Z,99.90
2019-05-03T21:38:50.327Z,99.90
2019-05-03T21:41:17.692Z,99.90
2019-05-03T21:43:46.140Z,99.90
2019-05-03T21:46:18.902Z,99.90
2019-05-03T21:48:59.311Z,99.90
2019-05-03T21:51:26.647Z,99.90
2019-05-03T21:53:54.254Z,99.90
2019-05-03T21:56:21.554Z,99.90
2019-05-03T21:58:48.821Z,99.90
2019-05-03T22:01:16.127Z,99.90
2019-05-03T22:03:44.764Z,99.90
2019-05-03T22:06:12.196Z,99.90
2019-05-03T22:08:39.436Z,99.90
2019-05-03T22:11:06.759Z,99.90
2019-05-03T22:13:34.937Z,99.90
2019-05-03T22:16:15.504Z,99.90
2019-05-03T22:18:43.015Z,99.90
2019-05-03T22:21:48.107Z,99.90
2019-05-03T22:24:37.706Z,99.90
2019-05-03T22:27:15.153Z,99.90
2019-05-03T22:29:42.263Z,99.90
2019-05-03T22:32:09.540Z,99.90
2019-05-03T22:34:36.814Z,99.90
2019-05-03T22:37:04.071Z,99.90
2019-05-03T22:39:31.302Z,99.90
2019-05-03T22:41:58.604Z,99.90
2019-05-03T22:44:25.856Z,99.90
2019-05-03T22:46:54.972Z,99.90
2019-05-03T22:49:22.283Z,99.90
2019-05-03T22:51:49.579Z,99.90
2019-05-03T22:54:16.820Z,99.90
2019-05-03T22:56:44.796Z,99.90
2019-05-03T22:59:14.494Z,99.90
2019-05-03T23:01:41.460Z,99.90
2019-05-03T23:04:08.697Z,99.90
2019-05-03T23:06:36.024Z,99.90
2019-05-03T23:09:05.358Z,99.90
2019-05-03T23:11:32.575Z,99.90
2019-05-03T23:14:04.630Z,99.90
2019-05-03T23:16:32.834Z,99.90
2019-05-03T23:19:00.171Z,99.90
2019-05-03T23:21:30.786Z,99.90
2019-05-03T23:23:58.027Z,99.90
2019-05-03T23:26:25.505Z,99.90
2019-05-03T23:28:54.988Z,99.90
2019-05-03T23:31:22.283Z,99.90
2019-05-03T23:33:49.511Z,99.90
2019-05-03T23:36:17.619Z,99.90
2019-05-03T23:38:45.379Z,99.90
2019-05-03T23:41:12.705Z,99.90
2019-05-03T23:43:39.933Z,99.90
2019-05-03T23:46:07.587Z,99.90
2019-05-03T23:48:35.114Z,99.90
2019-05-03T23:51:04.535Z,99.90
2019-05-03T23:53:31.706Z,99.90
2019-05-03T23:56:04.467Z,99.90
2019-05-03T23:58:31.864Z,99.90
